Time;durP1;ratioP1;P1;durP2;ratioP2;P2;SDS_P1;SDS_P2;PMS_P1;PMS_P2;Temp;Humidity;BMP_temperature;BMP_pressure;BME280_temperature;BME280_humidity;BME280_pressure;Samples;Min_cycle;Max_cycle;Signal;HPM_P1;HPM_P2
2022/10/01 00:00:48;;;;;;;;;6.00;6.00;;;;;;;;5056748;28;46143;-67
2022/10/01 00:03:13;;;;;;;;;5.00;5.00;;;;;;;;5060521;28;45802;-67
2022/10/01 00:05:38;;;;;;;;;5.00;5.00;;;;;;;;5059295;28;45332;-67
2022/10/01 00:08:04;;;;;;;;;4.00;4.00;;;;;;;;5059173;28;45774;-67
2022/10/01 00:10:30;;;;;;;;;7.25;4.25;;;;;;;;5060328;28;45326;-67
2022/10/01 00:12:55;;;;;;;;;5.33;5.00;;;;;;;;5060178;28;45478;-67
2022/10/01 00:15:21;;;;;;;;;5.75;5.75;;;;;;;;5060336;28;45320;-68
2022/10/01 00:17:46;;;;;;;;;4.00;4.00;;;;;;;;5060564;28;45493;-67
2022/10/01 00:20:12;;;;;;;;;5.50;5.50;;;;;;;;5059947;28;46485;-67
2022/10/01 00:22:37;;;;;;;;;5.50;3.50;;;;;;;;5060024;28;45328;-67
2022/10/01 00:25:04;;;;;;;;;5.00;5.00;;;;;;;;5058897;28;45396;-67
2022/10/01 00:27:30;;;;;;;;;5.33;5.00;;;;;;;;5060235;28;45393;-67
2022/10/01 00:29:55;;;;;;;;;4.00;4.00;;;;;;;;5059895;28;47390;-67
2022/10/01 00:32:20;;;;;;;;;4.50;4.50;;;;;;;;5059810;28;45279;-66
2022/10/01 00:34:46;;;;;;;;;5.75;5.75;;;;;;;;5060106;28;45345;-67
2022/10/01 00:37:11;;;;;;;;;4.00;3.00;;;;;;;;5060124;28;45204;-67
2022/10/01 00:39:37;;;;;;;;;4.00;4.00;;;;;;;;5059800;28;45293;-67
2022/10/01 00:42:14;;;;;;;;;3.25;3.25;;;;;;;;5058681;28;45467;-67
2022/10/01 00:44:40;;;;;;;;;3.00;3.00;;;;;;;;5059792;28;45428;-67
2022/10/01 00:47:10;;;;;;;;;5.00;4.33;;;;;;;;5059922;28;45248;-67
2022/10/01 00:49:36;;;;;;;;;3.00;2.50;;;;;;;;5059757;28;46716;-67
2022/10/01 00:52:04;;;;;;;;;3.50;3.50;;;;;;;;5059787;28;45209;-68
2022/10/01 00:54:33;;;;;;;;;3.00;2.00;;;;;;;;5059775;28;45308;-67
2022/10/01 00:56:59;;;;;;;;;3.25;3.25;;;;;;;;5058611;28;45498;-67
2022/10/01 00:59:25;;;;;;;;;4.00;4.00;;;;;;;;5059469;28;46616;-67
2022/10/01 01:01:51;;;;;;;;;4.00;4.00;;;;;;;;5058599;28;45449;-67
2022/10/01 01:04:16;;;;;;;;;5.00;4.00;;;;;;;;5059504;28;45205;-67
2022/10/01 01:06:47;;;;;;;;;3.00;3.00;;;;;;;;5059613;28;45484;-67
2022/10/01 01:09:12;;;;;;;;;5.50;4.00;;;;;;;;5059393;28;46542;-67
2022/10/01 01:11:47;;;;;;;;;5.00;5.00;;;;;;;;5058888;28;45306;-67
2022/10/01 01:14:28;;;;;;;;;5.00;4.75;;;;;;;;5058036;28;45244;-68
2022/10/01 01:16:57;;;;;;;;;4.00;2.25;;;;;;;;5059359;28;45403;-67
2022/10/01 01:19:42;;;;;;;;;4.50;4.50;;;;;;;;5059278;28;45736;-67
2022/10/01 01:22:10;;;;;;;;;4.00;4.00;;;;;;;;5059133;28;45241;-68
2022/10/01 01:24:35;;;;;;;;;4.00;4.00;;;;;;;;5059016;28;45430;-67
2022/10/01 01:27:09;;;;;;;;;3.00;3.00;;;;;;;;5056813;28;45335;-66
2022/10/01 01:29:42;;;;;;;;;2.50;2.50;;;;;;;;5059253;28;46551;-67
2022/10/01 01:32:11;;;;;;;;;2.00;2.00;;;;;;;;5058895;28;45194;-66
2022/10/01 01:34:38;;;;;;;;;3.00;3.00;;;;;;;;5059121;28;45276;-66
2022/10/01 01:37:11;;;;;;;;;6.00;4.25;;;;;;;;5059305;28;45478;-67
2022/10/01 01:39:37;;;;;;;;;2.75;2.75;;;;;;;;5056782;28;45457;-66
2022/10/01 01:42:05;;;;;;;;;3.25;2.50;;;;;;;;5058779;28;45355;-67
2022/10/01 01:44:34;;;;;;;;;5.00;3.25;;;;;;;;5059020;28;45348;-68
2022/10/01 01:47:00;;;;;;;;;3.50;2.00;;;;;;;;5059173;28;45388;-67
2022/10/01 01:49:26;;;;;;;;;3.75;3.75;;;;;;;;5058772;28;46023;-66
2022/10/01 01:52:15;;;;;;;;;4.00;2.00;;;;;;;;5058314;28;45387;-66
2022/10/01 01:54:45;;;;;;;;;1.00;1.00;;;;;;;;5045999;28;45369;-66
2022/10/01 01:57:14;;;;;;;;;2.00;2.00;;;;;;;;5058826;28;45266;-66
2022/10/01 01:59:40;;;;;;;;;1.75;1.75;;;;;;;;5046449;28;46038;-65
2022/10/01 02:02:06;;;;;;;;;1.00;1.00;;;;;;;;5042428;28;45334;-66
2022/10/01 02:04:31;;;;;;;;;2.00;2.00;;;;;;;;5055114;28;45503;-66
2022/10/01 02:07:32;;;;;;;;;1.00;1.00;;;;;;;;5047159;28;45442;-65
2022/10/01 02:09:58;;;;;;;;;1.00;1.00;;;;;;;;5036291;28;46528;-66
2022/10/01 02:12:41;;;;;;;;;2.00;1.00;;;;;;;;5018273;28;45462;-66
2022/10/01 02:15:12;;;;;;;;;0.75;0.00;;;;;;;;5016179;28;45302;-66
2022/10/01 02:17:49;;;;;;;;;0.25;0.25;;;;;;;;5017221;28;45421;-66
2022/10/01 02:20:20;;;;;;;;;0.50;0.50;;;;;;;;5029531;28;46313;-67
2022/10/01 02:22:51;;;;;;;;;0.00;0.00;;;;;;;;5035802;28;45506;-67
2022/10/01 02:25:17;;;;;;;;;1.00;1.00;;;;;;;;5032509;28;45579;-67
2022/10/01 02:27:49;;;;;;;;;1.00;1.00;;;;;;;;5016180;28;45446;-67
2022/10/01 02:30:15;;;;;;;;;0.25;0.25;;;;;;;;5015795;28;45496;-66
2022/10/01 02:32:42;;;;;;;;;0.25;0.25;;;;;;;;5030577;28;45496;-66
2022/10/01 02:35:10;;;;;;;;;0.00;0.00;;;;;;;;5036028;28;45349;-66
2022/10/01 02:37:36;;;;;;;;;0.00;0.00;;;;;;;;5035760;28;45358;-64
2022/10/01 02:40:03;;;;;;;;;0.00;0.00;;;;;;;;5034614;28;45742;-65
2022/10/01 02:42:29;;;;;;;;;0.00;0.00;;;;;;;;5035501;28;45354;-66
2022/10/01 02:44:57;;;;;;;;;0.00;0.00;;;;;;;;5055464;28;45349;-67
2022/10/01 02:47:25;;;;;;;;;0.00;0.00;;;;;;;;5058305;28;45388;-66
2022/10/01 02:49:51;;;;;;;;;1.00;1.00;;;;;;;;5057701;28;46681;-63
2022/10/01 02:52:26;;;;;;;;;0.00;0.00;;;;;;;;5057854;28;45372;-63
2022/10/01 02:54:51;;;;;;;;;0.00;0.00;;;;;;;;5056516;28;45329;-64
2022/10/01 02:57:23;;;;;;;;;1.00;1.00;;;;;;;;5037993;28;45753;-65
2022/10/01 02:59:56;;;;;;;;;0.00;0.00;;;;;;;;5037337;28;47269;-65
2022/10/01 03:02:22;;;;;;;;;2.00;1.00;;;;;;;;5037245;28;45393;-65
2022/10/01 03:04:47;;;;;;;;;0.25;0.25;;;;;;;;5037633;28;45297;-64
2022/10/01 03:07:13;;;;;;;;;0.50;0.00;;;;;;;;5037816;28;45250;-64
2022/10/01 03:09:39;;;;;;;;;0.75;0.75;;;;;;;;5037499;28;46598;-64
2022/10/01 03:12:05;;;;;;;;;0.50;0.50;;;;;;;;5037037;28;45304;-64
2022/10/01 03:14:31;;;;;;;;;0.25;0.25;;;;;;;;5057448;28;45359;-65
2022/10/01 03:16:56;;;;;;;;;2.25;1.00;;;;;;;;5058028;28;45352;-65
2022/10/01 03:19:21;;;;;;;;;1.00;1.00;;;;;;;;5057257;28;46441;-65
2022/10/01 03:21:47;;;;;;;;;0.00;0.00;;;;;;;;5057534;28;45356;-64
2022/10/01 03:24:12;;;;;;;;;1.00;0.00;;;;;;;;5057455;28;45379;-65
2022/10/01 03:26:37;;;;;;;;;0.00;0.00;;;;;;;;5057387;28;45280;-64
2022/10/01 03:29:03;;;;;;;;;0.00;0.00;;;;;;;;5055968;28;45431;-64
2022/10/01 03:31:28;;;;;;;;;1.75;0.25;;;;;;;;5057310;28;45482;-64
2022/10/01 03:33:57;;;;;;;;;1.00;1.00;;;;;;;;5057567;28;45365;-64
2022/10/01 03:36:23;;;;;;;;;1.00;1.00;;;;;;;;5057451;28;45665;-65
2022/10/01 03:38:48;;;;;;;;;1.00;1.00;;;;;;;;5060591;28;46657;-64
2022/10/01 03:41:13;;;;;;;;;3.25;3.25;;;;;;;;5060932;28;45352;-64
2022/10/01 03:43:38;;;;;;;;;0.50;0.25;;;;;;;;5060826;28;45335;-65
2022/10/01 03:46:03;;;;;;;;;1.00;1.00;;;;;;;;5061153;28;45322;-65
2022/10/01 03:48:29;;;;;;;;;0.00;0.00;;;;;;;;5060663;28;46323;-65
2022/10/01 03:50:56;;;;;;;;;1.25;1.25;;;;;;;;5060623;28;45269;-64
2022/10/01 03:53:21;;;;;;;;;0.75;0.75;;;;;;;;5059610;28;45489;-65
2022/10/01 03:55:47;;;;;;;;;0.00;0.00;;;;;;;;5060973;28;45354;-65
2022/10/01 03:58:12;;;;;;;;;0.00;0.00;;;;;;;;5060564;28;46590;-65
2022/10/01 04:00:37;;;;;;;;;0.00;0.00;;;;;;;;5060234;28;45292;-64
2022/10/01 04:03:02;;;;;;;;;1.00;1.00;;;;;;;;5060602;28;45470;-64
2022/10/01 04:05:28;;;;;;;;;0.00;0.00;;;;;;;;5061074;28;45277;-64
2022/10/01 04:07:53;;;;;;;;;1.00;1.00;;;;;;;;5060359;28;47306;-64
2022/10/01 04:10:18;;;;;;;;;1.75;0.25;;;;;;;;5059332;28;45300;-65
2022/10/01 04:12:43;;;;;;;;;2.00;2.00;;;;;;;;5060534;28;45201;-64
2022/10/01 04:15:09;;;;;;;;;1.00;1.00;;;;;;;;5060244;28;45207;-65
2022/10/01 04:17:35;;;;;;;;;1.25;1.00;;;;;;;;5060388;28;46410;-64
2022/10/01 04:20:00;;;;;;;;;0.75;0.75;;;;;;;;5060167;28;45705;-64
2022/10/01 04:22:25;;;;;;;;;1.00;1.00;;;;;;;;5060554;28;45273;-64
2022/10/01 04:24:51;;;;;;;;;1.00;1.00;;;;;;;;5059421;28;45217;-64
2022/10/01 04:27:16;;;;;;;;;0.50;0.50;;;;;;;;5060050;28;45245;-64
2022/10/01 04:29:42;;;;;;;;;0.25;0.25;;;;;;;;5060002;28;45615;-64
2022/10/01 04:32:07;;;;;;;;;0.25;0.25;;;;;;;;5054791;28;45430;-64
2022/10/01 04:37:16;;;;;;;;;0.50;0.00;;;;;;;;5039784;28;45740;-63
2022/10/01 04:39:41;;;;;;;;;0.25;0.25;;;;;;;;5039682;28;45230;-63
2022/10/01 04:42:06;;;;;;;;;1.00;1.00;;;;;;;;5051515;28;45328;-64
2022/10/01 04:44:31;;;;;;;;;0.00;0.00;;;;;;;;5060013;28;45447;-64
2022/10/01 04:46:56;;;;;;;;;2.00;1.00;;;;;;;;5058907;28;46454;-63
2022/10/01 04:49:22;;;;;;;;;1.00;0.50;;;;;;;;5059936;28;45434;-64
2022/10/01 04:51:47;;;;;;;;;2.00;2.00;;;;;;;;5059899;28;45474;-64
2022/10/01 04:54:12;;;;;;;;;0.00;0.00;;;;;;;;5060064;28;45343;-64
2022/10/01 04:56:37;;;;;;;;;4.25;0.25;;;;;;;;5059608;28;45381;-63
2022/10/01 04:59:03;;;;;;;;;0.50;0.50;;;;;;;;5058493;28;45371;-63
2022/10/01 05:01:29;;;;;;;;;2.00;0.75;;;;;;;;5059761;28;45737;-64
2022/10/01 05:03:55;;;;;;;;;2.25;1.25;;;;;;;;5059828;28;45224;-64
2022/10/01 05:06:20;;;;;;;;;0.50;0.50;;;;;;;;5059613;28;45457;-64
2022/10/01 05:08:47;;;;;;;;;1.00;1.00;;;;;;;;5059280;28;45513;-64
2022/10/01 05:11:12;;;;;;;;;2.00;1.00;;;;;;;;5059555;28;45450;-64
2022/10/01 05:13:38;;;;;;;;;0.75;0.00;;;;;;;;5059746;28;45421;-64
2022/10/01 05:16:03;;;;;;;;;1.50;1.50;;;;;;;;5059170;28;46456;-64
2022/10/01 05:18:29;;;;;;;;;1.75;0.25;;;;;;;;5058329;28;45472;-64
2022/10/01 05:20:54;;;;;;;;;1.25;1.25;;;;;;;;5059316;28;45390;-64
2022/10/01 05:23:19;;;;;;;;;1.00;1.00;;;;;;;;5059331;28;45209;-64
2022/10/01 05:25:45;;;;;;;;;1.00;1.00;;;;;;;;5059116;28;45367;-64
2022/10/01 05:28:12;;;;;;;;;0.75;0.75;;;;;;;;5059234;28;45534;-64
2022/10/01 05:30:37;;;;;;;;;2.00;2.00;;;;;;;;5059187;28;45235;-63
2022/10/01 05:33:03;;;;;;;;;6.50;2.00;;;;;;;;5058274;28;45442;-65
2022/10/01 05:35:29;;;;;;;;;2.50;1.25;;;;;;;;5058891;28;45574;-65
2022/10/01 05:37:58;;;;;;;;;3.00;1.50;;;;;;;;5059035;28;45320;-65
2022/10/01 05:40:26;;;;;;;;;2.50;1.50;;;;;;;;5059108;28;45340;-64
2022/10/01 05:42:51;;;;;;;;;2.25;2.25;;;;;;;;5059277;28;45218;-64
2022/10/01 05:45:19;;;;;;;;;3.25;3.00;;;;;;;;5058398;28;45507;-65
2022/10/01 05:47:46;;;;;;;;;4.25;3.00;;;;;;;;5058639;28;45566;-64
2022/10/01 05:50:11;;;;;;;;;5.50;3.00;;;;;;;;5057723;28;45600;-64
2022/10/01 05:52:37;;;;;;;;;4.75;3.00;;;;;;;;5059016;28;45293;-63
2022/10/01 05:55:02;;;;;;;;;3.25;1.50;;;;;;;;5058625;28;47004;-64
2022/10/01 05:57:29;;;;;;;;;4.75;2.00;;;;;;;;5058674;28;45372;-64
2022/10/01 05:59:56;;;;;;;;;3.50;2.50;;;;;;;;5058395;28;45467;-64
2022/10/01 06:02:21;;;;;;;;;3.75;1.00;;;;;;;;5058779;28;45362;-64
2022/10/01 06:04:46;;;;;;;;;4.75;0.00;;;;;;;;5058395;28;46199;-66
2022/10/01 06:07:12;;;;;;;;;5.50;2.00;;;;;;;;5057378;28;45298;-66
2022/10/01 06:09:37;;;;;;;;;1.50;1.25;;;;;;;;5058321;28;45340;-66
2022/10/01 06:12:04;;;;;;;;;3.00;3.00;;;;;;;;5057402;28;45432;-65
2022/10/01 06:14:29;;;;;;;;;3.50;2.00;;;;;;;;5058422;28;45581;-65
2022/10/01 06:16:54;;;;;;;;;4.50;2.00;;;;;;;;5057456;28;45482;-64
2022/10/01 06:19:19;;;;;;;;;4.25;2.00;;;;;;;;5058636;28;45234;-64
2022/10/01 06:21:45;;;;;;;;;7.00;1.00;;;;;;;;5058222;28;45482;-64
2022/10/01 06:24:10;;;;;;;;;7.50;1.50;;;;;;;;5056869;28;45785;-64
2022/10/01 06:26:35;;;;;;;;;2.50;0.50;;;;;;;;5058033;28;45322;-64
2022/10/01 06:29:02;;;;;;;;;6.00;3.00;;;;;;;;5058381;28;45328;-64
2022/10/01 06:31:28;;;;;;;;;4.00;2.50;;;;;;;;5057077;28;45381;-64
2022/10/01 06:33:53;;;;;;;;;3.50;2.00;;;;;;;;5057967;28;46398;-63
2022/10/01 06:36:18;;;;;;;;;7.00;1.75;;;;;;;;5057522;28;45412;-63
2022/10/01 06:38:46;;;;;;;;;4.00;1.50;;;;;;;;5056683;28;45448;-67
2022/10/01 06:41:11;;;;;;;;;2.25;2.25;;;;;;;;5057827;28;45566;-66
2022/10/01 06:43:36;;;;;;;;;4.50;3.25;;;;;;;;5057801;28;46433;-67
2022/10/01 06:46:03;;;;;;;;;5.50;3.00;;;;;;;;5057627;28;45491;-65
2022/10/01 06:48:29;;;;;;;;;3.75;1.50;;;;;;;;5057747;28;45326;-66
2022/10/01 06:50:55;;;;;;;;;4.50;1.50;;;;;;;;5057462;28;45414;-65
2022/10/01 06:53:20;;;;;;;;;12.33;11.67;;;;;;;;5055782;28;46776;-64
2022/10/01 06:55:46;;;;;;;;;7.25;5.25;;;;;;;;5057541;28;45312;-65
2022/10/01 06:58:13;;;;;;;;;4.75;3.50;;;;;;;;5057872;28;45321;-65
2022/10/01 07:00:38;;;;;;;;;9.75;4.75;;;;;;;;5056986;28;45383;-65
2022/10/01 07:03:05;;;;;;;;;9.25;4.50;;;;;;;;5057314;28;46445;-64
2022/10/01 07:05:30;;;;;;;;;8.25;5.75;;;;;;;;5057436;28;45232;-64
2022/10/01 07:07:55;;;;;;;;;5.25;3.50;;;;;;;;5057272;28;45238;-65
2022/10/01 07:10:22;;;;;;;;;3.50;3.50;;;;;;;;5055763;28;45236;-64
2022/10/01 07:12:48;;;;;;;;;5.75;2.00;;;;;;;;5056866;28;45487;-65
2022/10/01 07:15:13;;;;;;;;;9.25;3.50;;;;;;;;5056107;28;45462;-65
2022/10/01 07:17:43;;;;;;;;;3.75;2.75;;;;;;;;5057061;28;45401;-65
2022/10/01 07:20:08;;;;;;;;;6.25;2.50;;;;;;;;5057392;28;45280;-65
2022/10/01 07:22:33;;;;;;;;;3.50;2.75;;;;;;;;5057049;28;46211;-65
2022/10/01 07:24:59;;;;;;;;;4.50;2.75;;;;;;;;5057323;28;45173;-65
2022/10/01 07:27:24;;;;;;;;;11.00;1.50;;;;;;;;5056084;28;45308;-65
2022/10/01 07:29:49;;;;;;;;;3.75;1.75;;;;;;;;5057395;28;45388;-65
2022/10/01 07:32:14;;;;;;;;;2.00;1.75;;;;;;;;5056423;28;46177;-65
2022/10/01 07:34:40;;;;;;;;;2.50;1.25;;;;;;;;5056639;28;45491;-67
2022/10/01 07:37:06;;;;;;;;;6.00;1.75;;;;;;;;5057001;28;45481;-66
2022/10/01 07:39:31;;;;;;;;;4.25;1.75;;;;;;;;5057391;28;45415;-66
2022/10/01 07:41:57;;;;;;;;;6.75;3.00;;;;;;;;5056537;28;46647;-66
2022/10/01 07:44:22;;;;;;;;;6.00;3.00;;;;;;;;5056106;28;45305;-66
2022/10/01 07:46:48;;;;;;;;;5.50;1.25;;;;;;;;5056343;28;45411;-67
2022/10/01 07:49:13;;;;;;;;;2.50;2.25;;;;;;;;5057268;28;45395;-67
2022/10/01 07:51:42;;;;;;;;;2.75;1.00;;;;;;;;5057179;28;45795;-66
2022/10/01 07:54:07;;;;;;;;;4.75;1.75;;;;;;;;5056983;28;45417;-66
2022/10/01 07:56:33;;;;;;;;;8.50;4.75;;;;;;;;5056970;28;45456;-67
2022/10/01 07:58:58;;;;;;;;;6.00;2.00;;;;;;;;5054739;28;45418;-66
2022/10/01 08:01:24;;;;;;;;;2.75;1.50;;;;;;;;5056643;28;46622;-67
2022/10/01 08:03:50;;;;;;;;;3.00;1.00;;;;;;;;5056828;28;45225;-67
2022/10/01 08:06:17;;;;;;;;;2.25;1.00;;;;;;;;5056653;28;45250;-66
2022/10/01 08:08:42;;;;;;;;;5.00;2.25;;;;;;;;5056848;28;45373;-66
2022/10/01 08:11:09;;;;;;;;;3.00;3.00;;;;;;;;5056700;28;46063;-68
2022/10/01 08:13:34;;;;;;;;;3.50;3.50;;;;;;;;5056600;28;45483;-66
2022/10/01 08:16:01;;;;;;;;;1.25;1.25;;;;;;;;5055458;28;45589;-65
2022/10/01 08:18:26;;;;;;;;;5.25;3.00;;;;;;;;5056393;28;45292;-65
2022/10/01 08:20:51;;;;;;;;;4.00;2.00;;;;;;;;5056604;28;45620;-65
2022/10/01 08:23:17;;;;;;;;;2.00;1.00;;;;;;;;5058600;28;45414;-65
2022/10/01 08:25:42;;;;;;;;;6.00;1.75;;;;;;;;5060107;28;45869;-65
2022/10/01 08:28:09;;;;;;;;;2.75;2.00;;;;;;;;5060447;28;45389;-65
2022/10/01 08:30:38;;;;;;;;;2.25;2.25;;;;;;;;5058312;28;47077;-68
2022/10/01 08:33:04;;;;;;;;;5.50;4.00;;;;;;;;5074344;28;46229;-68
2022/10/01 08:35:29;;;;;;;;;3.00;2.00;;;;;;;;5080291;27;45491;-66
2022/10/01 08:37:55;;;;;;;;;4.50;1.00;;;;;;;;5062993;27;45430;-67
2022/10/01 08:40:21;;;;;;;;;10.00;3.00;;;;;;;;5058900;28;47213;-68
2022/10/01 08:42:50;;;;;;;;;2.00;1.00;;;;;;;;5058994;28;45850;-66
2022/10/01 08:45:22;;;;;;;;;5.00;2.00;;;;;;;;5059521;28;45216;-67
2022/10/01 08:47:54;;;;;;;;;1.50;0.75;;;;;;;;5059910;28;45332;-68
2022/10/01 08:50:28;;;;;;;;;4.75;2.50;;;;;;;;5059218;28;47264;-67
2022/10/01 08:52:57;;;;;;;;;2.75;0.75;;;;;;;;5058095;28;45521;-70
2022/10/01 08:55:25;;;;;;;;;4.25;2.00;;;;;;;;5059609;28;45324;-70
2022/10/01 08:57:55;;;;;;;;;4.00;2.00;;;;;;;;5059768;28;45257;-66
2022/10/01 09:00:21;;;;;;;;;4.25;2.00;;;;;;;;5059049;28;46631;-64
2022/10/01 09:02:46;;;;;;;;;10.33;10.33;;;;;;;;5059205;28;45412;-68
2022/10/01 09:05:20;;;;;;;;;4.25;2.00;;;;;;;;5059366;28;45466;-67
2022/10/01 09:07:54;;;;;;;;;2.25;1.50;;;;;;;;5058864;28;45510;-66
2022/10/01 09:10:23;;;;;;;;;5.00;2.25;;;;;;;;5058291;28;45514;-70
2022/10/01 09:12:54;;;;;;;;;8.00;1.00;;;;;;;;5058765;28;45312;-67
2022/10/01 09:15:38;;;;;;;;;3.50;3.00;;;;;;;;5054300;28;46684;-66
2022/10/01 09:18:03;;;;;;;;;7.25;3.00;;;;;;;;5057728;28;45498;-67
2022/10/01 09:20:38;;;;;;;;;10.00;2.00;;;;;;;;5050784;28;46007;-66
2022/10/01 09:23:22;;;;;;;;;3.75;1.50;;;;;;;;5038997;28;45298;-67
2022/10/01 09:25:51;;;;;;;;;3.00;1.50;;;;;;;;5039038;28;45202;-67
2022/10/01 09:28:20;;;;;;;;;2.00;0.25;;;;;;;;5039222;28;45359;-67
2022/10/01 09:31:01;;;;;;;;;1.25;1.00;;;;;;;;5039954;28;46240;-70
2022/10/01 09:33:32;;;;;;;;;6.75;2.00;;;;;;;;5038320;28;45321;-69
2022/10/01 09:36:06;;;;;;;;;0.00;0.00;;;;;;;;5045044;28;45590;-71
2022/10/01 09:38:39;;;;;;;;;5.50;1.50;;;;;;;;5058636;28;45574;-67
2022/10/01 09:41:05;;;;;;;;;2.75;2.75;;;;;;;;5058475;28;45575;-69
2022/10/01 09:43:33;;;;;;;;;5.00;0.50;;;;;;;;5058282;28;45391;-69
2022/10/01 09:46:01;;;;;;;;;3.00;2.00;;;;;;;;5051530;28;45511;-66
2022/10/01 09:48:30;;;;;;;;;3.00;1.00;;;;;;;;5056679;28;45560;-67
2022/10/01 09:50:58;;;;;;;;;2.00;1.75;;;;;;;;5058594;28;45563;-75
2022/10/01 09:53:28;;;;;;;;;5.25;2.00;;;;;;;;5058138;28;45913;-67
2022/10/01 09:55:56;;;;;;;;;4.75;2.00;;;;;;;;5058311;28;45370;-67
2022/10/01 09:58:23;;;;;;;;;6.25;2.00;;;;;;;;5058025;28;45379;-68
2022/10/01 10:00:50;;;;;;;;;5.50;2.00;;;;;;;;5057762;28;45679;-69
2022/10/01 10:03:41;;;;;;;;;1.50;0.00;;;;;;;;5057703;28;45408;-67
2022/10/01 10:06:07;;;;;;;;;3.00;1.00;;;;;;;;5049270;28;45675;-63
2022/10/01 10:08:35;;;;;;;;;1.00;1.00;;;;;;;;5058390;28;45365;-70
2022/10/01 10:11:01;;;;;;;;;4.00;2.00;;;;;;;;5055089;28;46524;-67
2022/10/01 10:13:33;;;;;;;;;4.00;1.75;;;;;;;;5039544;28;45510;-67
2022/10/01 10:15:59;;;;;;;;;4.33;2.67;;;;;;;;5048082;28;46341;-72
2022/10/01 10:18:34;;;;;;;;;2.00;1.00;;;;;;;;5048385;28;45470;-68
2022/10/01 10:21:02;;;;;;;;;1.00;1.00;;;;;;;;5039172;28;45451;-72
2022/10/01 10:23:30;;;;;;;;;5.00;3.00;;;;;;;;5038281;28;45488;-72
2022/10/01 10:25:59;;;;;;;;;3.67;1.00;;;;;;;;5036113;28;45464;-72
2022/10/01 10:28:26;;;;;;;;;2.00;1.00;;;;;;;;5053613;28;45750;-66
2022/10/01 10:30:52;;;;;;;;;2.00;1.00;;;;;;;;5046515;28;46355;-66
2022/10/01 10:33:21;;;;;;;;;3.50;1.00;;;;;;;;5043022;28;45401;-67
2022/10/01 10:36:00;;;;;;;;;1.50;1.00;;;;;;;;5045557;28;45382;-67
2022/10/01 10:38:28;;;;;;;;;1.50;1.00;;;;;;;;5043144;28;45522;-67
2022/10/01 10:40:53;;;;;;;;;2.50;0.75;;;;;;;;5046262;28;45919;-66
2022/10/01 10:43:21;;;;;;;;;3.00;0.00;;;;;;;;5049284;28;45501;-67
2022/10/01 10:45:53;;;;;;;;;4.00;2.75;;;;;;;;5046744;28;45565;-67
2022/10/01 10:48:19;;;;;;;;;2.00;0.25;;;;;;;;5047016;28;45795;-67
2022/10/01 10:50:45;;;;;;;;;2.00;0.50;;;;;;;;5051998;28;46537;-67
2022/10/01 10:53:20;;;;;;;;;4.50;2.50;;;;;;;;5053780;28;45470;-66
2022/10/01 10:55:58;;;;;;;;;0.75;0.75;;;;;;;;5048582;28;45461;-67
2022/10/01 10:58:24;;;;;;;;;3.50;2.00;;;;;;;;5037316;28;45208;-67
2022/10/01 11:00:50;;;;;;;;;2.25;1.75;;;;;;;;5056484;28;46596;-67
2022/10/01 11:03:18;;;;;;;;;2.75;2.00;;;;;;;;5056609;28;45480;-67
2022/10/01 11:05:43;;;;;;;;;2.75;0.50;;;;;;;;5057202;28;45802;-67
2022/10/01 11:08:19;;;;;;;;;1.00;0.75;;;;;;;;5057176;28;45261;-66
2022/10/01 11:10:44;;;;;;;;;4.00;1.50;;;;;;;;5053692;28;47412;-66
2022/10/01 11:13:09;;;;;;;;;1.50;1.00;;;;;;;;5045019;28;45415;-66
2022/10/01 11:15:54;;;;;;;;;7.75;1.75;;;;;;;;5041540;28;45428;-66
2022/10/01 11:18:19;;;;;;;;;2.50;1.75;;;;;;;;5039773;28;45481;-67
2022/10/01 11:21:00;;;;;;;;;2.75;1.00;;;;;;;;5045296;28;47316;-67
2022/10/01 11:23:26;;;;;;;;;1.00;1.00;;;;;;;;5056722;28;45469;-67
2022/10/01 11:26:10;;;;;;;;;13.00;13.00;;;;;;;;5056416;28;45458;-66
2022/10/01 11:28:38;;;;;;;;;4.00;3.00;;;;;;;;5056544;28;45431;-67
2022/10/01 11:31:22;;;;;;;;;2.50;2.00;;;;;;;;5056231;28;46588;-67
2022/10/01 11:33:50;;;;;;;;;2.75;0.00;;;;;;;;5038043;28;45500;-67
2022/10/01 11:36:34;;;;;;;;;4.25;1.25;;;;;;;;5054668;28;45558;-67
2022/10/01 11:39:01;;;;;;;;;0.75;0.50;;;;;;;;5036490;28;45580;-67
2022/10/01 11:41:30;;;;;;;;;1.25;1.00;;;;;;;;5055381;28;45475;-67
2022/10/01 11:43:58;;;;;;;;;3.00;3.00;;;;;;;;5056176;28;45453;-67
2022/10/01 11:46:48;;;;;;;;;0.00;0.00;;;;;;;;5055551;28;45443;-67
2022/10/01 11:49:27;;;;;;;;;1.00;1.00;;;;;;;;5048034;28;45517;-67
2022/10/01 11:52:08;;;;;;;;;0.00;0.00;;;;;;;;5049711;28;46564;-68
2022/10/01 11:54:34;;;;;;;;;1.00;1.00;;;;;;;;5036402;28;45350;-73
2022/10/01 11:59:53;;;;;;;;;0.00;0.00;;;;;;;;5059821;28;45499;-71
2022/10/01 12:02:27;;;;;;;;;2.50;0.50;;;;;;;;5059184;28;46756;-71
2022/10/01 12:05:15;;;;;;;;;0.50;0.50;;;;;;;;5043906;28;45460;-66
2022/10/01 12:07:56;;;;;;;;;3.25;0.00;;;;;;;;5057590;28;45415;-67
2022/10/01 12:10:40;;;;;;;;;1.00;1.00;;;;;;;;5059798;28;45336;-67
2022/10/01 12:13:14;;;;;;;;;2.00;0.00;;;;;;;;5057209;28;46153;-67
2022/10/01 12:15:52;;;;;;;;;0.50;0.25;;;;;;;;5059447;28;45435;-67
2022/10/01 12:18:23;;;;;;;;;2.25;0.00;;;;;;;;5059456;28;45423;-68
2022/10/01 12:20:55;;;;;;;;;1.75;0.00;;;;;;;;5059410;28;45383;-67
2022/10/01 12:23:25;;;;;;;;;2.00;0.00;;;;;;;;5059228;28;46610;-67
2022/10/01 12:26:04;;;;;;;;;1.25;0.00;;;;;;;;5059039;28;45363;-66
2022/10/01 12:28:33;;;;;;;;;0.00;0.00;;;;;;;;5059348;28;45400;-66
2022/10/01 12:31:18;;;;;;;;;2.25;0.00;;;;;;;;5057742;28;45447;-66
2022/10/01 12:33:43;;;;;;;;;1.50;0.00;;;;;;;;5050101;28;46697;-67
2022/10/01 12:36:17;;;;;;;;;2.00;0.50;;;;;;;;5058846;28;45461;-66
2022/10/01 12:38:54;;;;;;;;;0.00;0.00;;;;;;;;5059045;28;45543;-67
2022/10/01 12:41:38;;;;;;;;;1.25;0.00;;;;;;;;5059559;28;45372;-67
2022/10/01 12:44:22;;;;;;;;;0.00;0.00;;;;;;;;5059294;28;45470;-66
2022/10/01 12:47:01;;;;;;;;;1.25;0.50;;;;;;;;5058238;28;45415;-66
2022/10/01 12:49:52;;;;;;;;;2.00;0.00;;;;;;;;5058970;28;45449;-66
2022/10/01 12:52:18;;;;;;;;;2.00;1.00;;;;;;;;5057725;28;45434;-67
2022/10/01 12:54:55;;;;;;;;;3.25;0.25;;;;;;;;5058647;28;46624;-66
2022/10/01 12:57:31;;;;;;;;;3.25;0.75;;;;;;;;5058841;28;45325;-65
2022/10/01 13:00:03;;;;;;;;;3.00;2.00;;;;;;;;5058935;28;45332;-66
2022/10/01 13:02:40;;;;;;;;;1.00;1.00;;;;;;;;5057877;28;45834;-67
2022/10/01 13:05:08;;;;;;;;;0.00;0.00;;;;;;;;5057597;28;46305;-66
2022/10/01 13:07:41;;;;;;;;;4.75;1.00;;;;;;;;5058303;28;45448;-67
2022/10/01 13:10:14;;;;;;;;;0.00;0.00;;;;;;;;5058937;28;45427;-69
2022/10/01 13:12:50;;;;;;;;;1.75;1.00;;;;;;;;5059212;28;45436;-68
2022/10/01 13:15:21;;;;;;;;;1.00;1.00;;;;;;;;5058497;28;45423;-67
2022/10/01 13:17:49;;;;;;;;;9.67;9.33;;;;;;;;5057225;28;45415;-68
2022/10/01 13:20:33;;;;;;;;;5.75;2.00;;;;;;;;5057210;28;45416;-68
2022/10/01 13:23:04;;;;;;;;;0.75;0.00;;;;;;;;5057886;28;45471;-69
2022/10/01 13:25:32;;;;;;;;;0.50;0.00;;;;;;;;5058089;28;45383;-68
2022/10/01 13:28:09;;;;;;;;;2.00;0.75;;;;;;;;5058206;28;45438;-69
2022/10/01 13:30:46;;;;;;;;;1.00;0.00;;;;;;;;5058789;28;45435;-69
2022/10/01 13:33:22;;;;;;;;;0.00;0.00;;;;;;;;5058684;28;45236;-69
2022/10/01 13:35:58;;;;;;;;;1.50;0.00;;;;;;;;5058144;28;46641;-68
2022/10/01 13:38:38;;;;;;;;;2.00;0.25;;;;;;;;5058241;28;45328;-69
2022/10/01 13:41:05;;;;;;;;;2.00;0.00;;;;;;;;5041102;28;45621;-68
2022/10/01 13:43:31;;;;;;;;;3.00;0.00;;;;;;;;5038264;28;45446;-68
2022/10/01 13:46:04;;;;;;;;;3.25;0.00;;;;;;;;5037338;28;45515;-70
2022/10/01 13:48:34;;;;;;;;;1.50;0.00;;;;;;;;5037973;28;45432;-67
2022/10/01 13:51:01;;;;;;;;;1.00;1.00;;;;;;;;5038152;28;45477;-68
2022/10/01 13:53:28;;;;;;;;;4.25;0.25;;;;;;;;5053141;28;45483;-68
2022/10/01 13:55:55;;;;;;;;;0.00;0.00;;;;;;;;5056448;28;46812;-67
2022/10/01 13:58:43;;;;;;;;;3.25;3.25;;;;;;;;5057522;28;45459;-68
2022/10/01 14:01:20;;;;;;;;;3.00;2.00;;;;;;;;5058083;28;45475;-69
2022/10/01 14:03:51;;;;;;;;;1.25;0.75;;;;;;;;5058148;28;45353;-69
2022/10/01 14:06:22;;;;;;;;;0.50;0.50;;;;;;;;5057590;28;46476;-68
2022/10/01 14:09:03;;;;;;;;;3.00;0.00;;;;;;;;5057811;28;45394;-70
2022/10/01 14:17:05;;;;;;;;;3.75;1.00;;;;;;;;5057436;28;45387;-68
2022/10/01 14:19:30;;;;;;;;;0.75;0.75;;;;;;;;5056410;28;45452;-68
2022/10/01 14:21:58;;;;;;;;;3.50;0.00;;;;;;;;5057383;28;45409;-68
2022/10/01 14:24:31;;;;;;;;;2.50;0.00;;;;;;;;5051714;28;45415;-68
2022/10/01 14:27:16;;;;;;;;;6.00;5.33;;;;;;;;5051068;28;46182;-67
2022/10/01 14:29:54;;;;;;;;;3.00;1.75;;;;;;;;5047024;28;45551;-67
2022/10/01 14:32:31;;;;;;;;;1.25;1.00;;;;;;;;5053641;28;45475;-67
2022/10/01 14:35:03;;;;;;;;;0.00;0.00;;;;;;;;5057611;28;45411;-67
2022/10/01 14:37:29;;;;;;;;;0.75;0.00;;;;;;;;5037684;28;46609;-67
2022/10/01 14:40:02;;;;;;;;;2.00;0.00;;;;;;;;5037745;28;45332;-67
2022/10/01 14:42:27;;;;;;;;;1.25;0.00;;;;;;;;5037956;28;45427;-67
2022/10/01 14:44:52;;;;;;;;;0.00;0.00;;;;;;;;5037882;28;45214;-66
2022/10/01 14:47:18;;;;;;;;;0.00;0.00;;;;;;;;5037460;28;46311;-66
2022/10/01 14:49:44;;;;;;;;;0.00;0.00;;;;;;;;5050347;28;45222;-67
2022/10/01 14:52:21;;;;;;;;;1.25;1.00;;;;;;;;5054269;28;45396;-66
2022/10/01 14:54:46;;;;;;;;;3.50;1.25;;;;;;;;5049311;28;45400;-70
2022/10/01 14:57:15;;;;;;;;;1.75;1.00;;;;;;;;5057436;28;45618;-70
2022/10/01 14:59:40;;;;;;;;;1.00;1.00;;;;;;;;5057640;28;45247;-70
2022/10/01 15:02:16;;;;;;;;;0.00;0.00;;;;;;;;5057602;28;45578;-70
2022/10/01 15:04:46;;;;;;;;;0.00;0.00;;;;;;;;5058011;28;45237;-70